Flight Track Log - Related Links

Times and Time Zones

All times are in EDT time to prevent confusion due to time zone crossing. See the SKW6492 flight status page for this flight to view local times or setup timezone preferences in your user account.

Time Position Orientation Groundspeed Altitude Reporting Facility
EDT Latitude Longitude Course Direction KTS MPH feet Rate Location/Type
Wed 10:36:33 PM 39.9103 -104.6956 348° North 188 216 6,500  Level Denver Center
Wed 10:37:35 PM 39.9747 -104.6781 12° North 239 275 7,900 1,561 Climbing Denver Center
Wed 10:38:36 PM 40.0600 -104.6581 10° North 286 329 9,700 1,902 Climbing Denver Center
Wed 10:39:00 PM 40.2489 -104.7963 347° North  Level FlightAware Approximate
Wed 10:39:38 PM 40.1378 -104.6786 349° North 284 327 11,800  Level Denver Center
Wed 10:40:00 PM 40.3491 -104.8275 346° North  Level FlightAware Approximate
Wed 10:40:40 PM 40.2169 -104.7003 348° North 288 331 13,700  Level Denver Center
Wed 10:41:00 PM 40.4489 -104.8607 346° North  Level FlightAware Approximate
Wed 10:41:41 PM 40.3022 -104.7233 348° North 285 328 15,900  Level Denver Center
Wed 10:42:00 PM 40.5415 -104.8904 348° North  Level FlightAware Approximate
Wed 10:42:43 PM 40.3819 -104.7431 349° North 291 335 17,000  Level Denver Center
Wed 10:43:45 PM 40.4736 -104.7681 348° North 310 357 18,200 1,073 Climbing Denver Center
Wed 10:44:46 PM 40.5622 -104.7917 349° North 326 375 19,200 1,073 Climbing Denver Center
Wed 10:45:48 PM 40.6544 -104.8161 349° North 335 386 20,400 1,065 Climbing Denver Center
Wed 10:46:50 PM 40.7503 -104.8442 347° North 332 382 21,400 829 Climbing Denver Center
Wed 10:47:51 PM 40.8292 -104.8706 346° North 331 381 22,100 927 Climbing Denver Center
Wed 10:48:53 PM 40.9372 -104.9267 339° North 343 395 23,300 1,065 Climbing Denver Center
Wed 10:49:55 PM 41.0244 -104.9694 340° North 346 398 24,300 976 Climbing Denver Center
Wed 10:50:56 PM 41.1089 -105.0117 339° North 342 394 25,300 780 Climbing Denver Center
Wed 10:51:58 PM 41.2089 -105.0586 341° North 341 392 25,900 339 Climbing Denver Center
Wed 10:53:00 PM 41.2972 -105.1014 340° North 349 402 26,000 49 Climbing Denver Center
Wed 10:54:01 PM 41.4072 -105.1553 340° North 372 428 26,000  Level Denver Center
Wed 10:55:03 PM 41.5042 -105.2033 340° North 385 443 26,000  Level Denver Center
Wed 10:56:04 PM 41.6108 -105.2858 330° Northwest 396 456 26,000  Level Denver Center
Wed 10:57:07 PM 41.6950 -105.3772 321° Northwest 404 465 26,000  Level Denver Center
Wed 10:58:08 PM 41.7811 -105.4706 321° Northwest 412 474 26,000  Level Denver Center
Wed 10:59:09 PM 41.8814 -105.5775 322° Northwest 412 474 26,000  Level Denver Center
Wed 11:00:11 PM 41.9669 -105.6717 321° Northwest 413 475 26,000  Level Denver Center
Wed 11:01:12 PM 42.0661 -105.7808 321° Northwest 412 474 26,000  Level Denver Center
Wed 11:02:14 PM 42.1506 -105.8742 321° Northwest 408 470 26,000  Level Denver Center
Wed 11:03:16 PM 42.2369 -105.9700 321° Northwest 417 480 26,000  Level Denver Center
Wed 11:04:17 PM 42.3364 -106.0811 320° Northwest 417 480 26,000  Level Denver Center
Wed 11:05:19 PM 42.4222 -106.1758 321° Northwest 416 479 26,000  Level Denver Center
Wed 11:06:21 PM 42.5222 -106.2881 320° Northwest 415 478 26,000  Level Denver Center
Wed 11:07:22 PM 42.6075 -106.3842 320° Northwest 415 478 26,000  Level Denver Center
Wed 11:08:24 PM 42.6931 -106.4814 320° Northwest 420 483 26,000  Level Denver Center
Wed 11:09:25 PM 42.7919 -106.5936 320° Northwest 415 478 26,000  Level Denver Center
Wed 11:10:27 PM 42.8772 -106.6903 320° Northwest 416 479 26,000  Level Denver Center
Wed 11:11:29 PM 42.9767 -106.8044 320° Northwest 417 480 26,000  Level Denver Center
Wed 11:12:27 PM 43.0603 -106.9039 319° Northwest 417 480 26,000  Level Salt Lake Center
Wed 11:13:28 PM 43.1458 -106.9939 323° Northwest 416 479 26,000  Level Salt Lake Center
Wed 11:14:30 PM 43.2333 -107.0964 320° Northwest 414 476 26,000  Level Salt Lake Center
Wed 11:15:31 PM 43.3233 -107.2025 319° Northwest 424 488 26,000  Level Salt Lake Center
Wed 11:16:33 PM 43.4114 -107.3061 319° Northwest 418 481 26,000  Level Salt Lake Center
Wed 11:17:34 PM 43.5183 -107.4322 319° Northwest 421 484 26,000 -344 Level Salt Lake Center
Wed 11:18:35 PM 43.6086 -107.5358 320° Northwest 422 486 25,300 -1,366 Descending Salt Lake Center
Wed 11:19:37 PM 43.6983 -107.6444 319° Northwest 428 493 23,200 -1,951 Descending Salt Lake Center
Wed 11:20:38 PM 43.7828 -107.7500 318° Northwest 413 475 21,300 -1,672 Descending Salt Lake Center
Wed 11:21:39 PM 43.8614 -107.8583 315° West 399 459 19,800 -1,512 Descending Salt Lake Center
Wed 11:22:41 PM 43.9411 -107.9667 316° Northwest 400 460 18,200 -1,512 Descending Salt Lake Center
Wed 11:23:42 PM 44.0200 -108.0750 315° West 399 459 16,700 -1,574 Descending Salt Lake Center
Wed 11:24:43 PM 44.0981 -108.1833 315° West 399 459 15,000 -1,561 Descending Salt Lake Center
Wed 11:25:45 PM 44.1706 -108.2817 316° Northwest 386 444 13,500 -1,317 Descending Salt Lake Center
Wed 11:26:46 PM 44.2375 -108.3756 315° West 366 421 12,300 -1,328 Descending Salt Lake Center
Wed 11:27:47 PM 44.3181 -108.4853 316° Northwest 350 403 10,800 -1,230 Descending Salt Lake Center
Wed 11:28:48 PM 44.3783 -108.5694 315° West 332 382 9,800 -878 Descending Salt Lake Center
Wed 11:29:50 PM 44.4408 -108.6292 326° Northwest 302 348 9,000 -780 Descending Salt Lake Center
Wed 11:30:51 PM 44.5081 -108.6869 328° Northwest 288 331 8,200 -738 Descending Salt Lake Center
Wed 11:31:52 PM 44.5750 -108.7447 328° Northwest 284 327 7,500 -344 Descending Salt Lake Center
Wed 11:32:53 PM 44.6244 -108.8125 316° Northwest 269 310 7,500  Level Salt Lake Center
Wed 11:33:54 PM 44.5958 -108.8922 243° Southwest 244 281 7,500  Level Salt Lake Center

Login

Don't have an account? Register now (free) for customized features, flight alerts, and more!